Time;durP1;ratioP1;P1;durP2;ratioP2;P2;SDS_P1;SDS_P2;PMS_P1;PMS_P2;Temp;Humidity;BMP_temperature;BMP_pressure;BME280_temperature;BME280_humidity;BME280_pressure;Samples;Min_cycle;Max_cycle;Signal;HPM_P1;HPM_P2
2023/03/20 00:01:12;;;;;;;16.52;5.95;;;;;;;8.23;100.00;101914.00;5091390;28;20367;-73
2023/03/20 00:03:37;;;;;;;14.65;6.22;;;;;;;8.18;100.00;101895.03;5091695;28;20032;-74
2023/03/20 00:06:03;;;;;;;17.30;6.32;;;;;;;8.20;100.00;101911.63;5091859;28;20378;-74
2023/03/20 00:08:28;;;;;;;14.55;5.97;;;;;;;8.17;100.00;101904.81;5091864;28;20502;-73
2023/03/20 00:10:54;;;;;;;15.35;5.88;;;;;;;8.10;100.00;101899.28;5091744;28;20491;-73
2023/03/20 00:13:25;;;;;;;23.70;7.88;;;;;;;8.12;100.00;101912.41;5085590;28;20502;-73
2023/03/20 00:15:50;;;;;;;15.20;6.18;;;;;;;8.11;100.00;101900.13;5072110;28;20127;-73
2023/03/20 00:18:21;;;;;;;15.60;6.13;;;;;;;8.12;100.00;101907.09;5072538;28;20139;-74
2023/03/20 00:20:49;;;;;;;14.20;6.00;;;;;;;8.11;100.00;101900.13;5072270;28;20616;-74
2023/03/20 00:23:16;;;;;;;11.77;4.75;;;;;;;8.03;100.00;101887.59;5070597;28;20062;-74
2023/03/20 00:25:44;;;;;;;17.20;5.18;;;;;;;8.05;100.00;101900.75;5071567;28;20060;-74
2023/03/20 00:28:37;;;;;;;13.05;5.20;;;;;;;8.03;100.00;101900.06;5071834;28;20047;-74
2023/03/20 00:31:05;;;;;;;16.35;5.85;;;;;;;8.01;100.00;101894.88;5091043;28;20138;-74
2023/03/20 00:33:30;;;;;;;14.60;5.00;;;;;;;8.02;100.00;101898.41;5091025;28;20036;-74
2023/03/20 00:35:57;;;;;;;16.35;4.88;;;;;;;7.99;100.00;101888.91;5090869;28;20383;-73
2023/03/20 00:38:23;;;;;;;16.92;5.68;;;;;;;7.98;100.00;101871.28;5091000;28;20035;-74
2023/03/20 00:40:49;;;;;;;13.45;5.28;;;;;;;8.00;100.00;101874.63;5091008;28;20394;-74
2023/03/20 00:43:15;;;;;;;14.25;5.60;;;;;;;8.01;100.00;101870.97;5090874;28;20032;-74
2023/03/20 00:45:42;;;;;;;19.55;5.60;;;;;;;7.97;100.00;101864.31;5091203;28;20031;-74
2023/03/20 00:48:13;;;;;;;19.38;7.22;;;;;;;7.96;100.00;101864.47;5091070;28;20097;-73
2023/03/20 00:50:38;;;;;;;16.20;5.43;;;;;;;7.95;100.00;101866.28;5090967;28;20024;-74
2023/03/20 00:53:05;;;;;;;13.13;5.30;;;;;;;7.94;100.00;101855.81;5071804;28;20357;-74
2023/03/20 00:55:30;;;;;;;13.85;5.35;;;;;;;7.92;100.00;101841.88;5071196;28;20055;-74
2023/03/20 00:57:59;;;;;;;15.98;5.45;;;;;;;7.90;100.00;101857.94;5071346;28;20133;-74
2023/03/20 01:00:44;;;;;;;12.90;5.45;;;;;;;7.93;100.00;101859.47;5090509;28;20035;-74
2023/03/20 01:03:22;;;;;;;17.95;5.90;;;;;;;7.93;100.00;101859.47;5090569;28;20028;-74
2023/03/20 01:05:49;;;;;;;14.35;5.60;;;;;;;7.84;100.00;101858.59;5089306;28;20419;-73
2023/03/20 01:08:20;;;;;;;16.52;6.00;;;;;;;7.90;100.00;101873.88;5090568;28;20035;-74
2023/03/20 01:10:49;;;;;;;12.82;5.05;;;;;;;7.86;100.00;101886.66;5090370;28;20478;-73
2023/03/20 01:13:20;;;;;;;13.48;5.93;;;;;;;7.91;100.00;101891.47;5090454;28;20022;-74
2023/03/20 01:15:47;;;;;;;14.65;5.38;;;;;;;7.93;100.00;101901.97;5090389;28;20020;-73
2023/03/20 01:18:14;;;;;;;18.35;6.43;;;;;;;7.92;100.00;101910.94;5090422;28;20473;-74
2023/03/20 01:20:40;;;;;;;16.05;6.28;;;;;;;7.90;100.00;101901.28;5090106;28;20024;-74
2023/03/20 01:23:06;;;;;;;16.85;6.25;;;;;;;7.88;100.00;101902.41;5088901;28;20185;-74
2023/03/20 01:25:31;;;;;;;15.77;5.70;;;;;;;7.81;100.00;101886.28;5090004;28;20028;-73
2023/03/20 01:27:57;;;;;;;18.67;7.90;;;;;;;7.82;100.00;101892.41;5090394;28;20064;-74
2023/03/20 01:30:28;;;;;;;17.25;6.65;;;;;;;7.72;100.00;101889.84;5090156;28;20023;-74
2023/03/20 01:32:55;;;;;;;11.75;4.35;;;;;;;7.65;100.00;101902.03;5090198;28;20028;-74
2023/03/20 01:35:24;;;;;;;17.25;6.07;;;;;;;7.58;100.00;101901.00;5090030;28;20038;-74
2023/03/20 01:37:51;;;;;;;17.67;7.40;;;;;;;7.48;100.00;101909.03;5090016;28;20441;-73
2023/03/20 01:41:04;;;;;;;20.73;6.85;;;;;;;7.43;100.00;101908.63;5089942;28;20032;-73
2023/03/20 01:43:30;;;;;;;16.33;5.90;;;;;;;7.28;100.00;101903.00;5067626;28;20056;-73
2023/03/20 01:46:02;;;;;;;21.63;6.55;;;;;;;7.24;100.00;101910.44;5076657;28;20048;-74
2023/03/20 01:48:55;;;;;;;19.13;7.07;;;;;;;7.24;100.00;101910.44;5069891;28;20081;-73
2023/03/20 01:51:25;;;;;;;18.52;6.88;;;;;;;7.17;100.00;101919.94;5089306;28;20056;-74
2023/03/20 01:53:57;;;;;;;18.58;7.30;;;;;;;7.09;100.00;101906.59;5089605;28;20073;-74
2023/03/20 01:56:23;;;;;;;19.38;6.60;;;;;;;7.04;100.00;101908.84;5089605;28;20038;-74
2023/03/20 01:58:57;;;;;;;18.45;7.25;;;;;;;6.95;100.00;101905.28;5089537;28;20076;-73
2023/03/20 02:01:24;;;;;;;16.48;6.03;;;;;;;6.87;100.00;101899.03;5089459;28;20039;-74
2023/03/20 02:03:50;;;;;;;16.92;6.65;;;;;;;6.84;100.00;101900.16;5089559;28;20094;-74
2023/03/20 02:06:19;;;;;;;17.63;7.43;;;;;;;6.79;100.00;101897.13;5089487;28;20646;-74
2023/03/20 02:08:48;;;;;;;17.27;6.78;;;;;;;6.76;100.00;101894.75;5089350;28;20158;-73
2023/03/20 02:11:15;;;;;;;19.38;7.82;;;;;;;6.67;100.00;101888.50;5089578;28;20098;-74
2023/03/20 02:13:41;;;;;;;16.80;8.52;;;;;;;6.67;100.00;101885.84;5089307;28;20028;-74
2023/03/20 02:16:11;;;;;;;22.25;7.03;;;;;;;6.61;100.00;101883.78;5089323;28;20032;-73
2023/03/20 02:18:38;;;;;;;14.25;5.95;;;;;;;6.54;100.00;101872.91;5089454;28;20115;-74
2023/03/20 02:21:22;;;;;;;18.35;8.23;;;;;;;6.56;100.00;101891.34;5069802;28;20046;-73
2023/03/20 02:23:50;;;;;;;20.13;7.90;;;;;;;6.51;100.00;101897.06;5089179;28;20027;-74
2023/03/20 02:26:51;;;;;;;17.65;6.70;;;;;;;6.47;100.00;101903.66;5088777;28;20051;-74
2023/03/20 02:29:52;;;;;;;14.90;6.20;;;;;;;6.43;100.00;101907.56;5076704;28;20069;-74
2023/03/20 02:32:48;;;;;;;19.20;7.60;;;;;;;6.38;100.00;101901.84;5069725;28;20025;-74
2023/03/20 02:35:25;;;;;;;21.77;7.57;;;;;;;6.36;100.00;101903.78;5088997;28;20069;-74
2023/03/20 02:38:09;;;;;;;16.02;6.57;;;;;;;6.32;100.00;101895.31;5069792;28;20032;-73
2023/03/20 02:40:49;;;;;;;19.48;7.55;;;;;;;6.33;100.00;101909.38;5088567;28;20028;-74
2023/03/20 02:43:52;;;;;;;16.60;7.32;;;;;;;6.30;100.00;101905.19;5088965;28;20108;-73
2023/03/20 02:46:50;;;;;;;18.98;7.80;;;;;;;6.29;100.00;101905.38;5085210;28;20051;-73
2023/03/20 02:49:27;;;;;;;22.13;8.48;;;;;;;6.30;100.00;101902.56;5076693;28;20118;-73
2023/03/20 02:52:04;;;;;;;19.48;7.35;;;;;;;6.29;100.00;101894.75;5088659;28;20558;-73
2023/03/20 02:54:40;;;;;;;19.35;6.85;;;;;;;6.26;100.00;101900.31;5088996;28;20028;-74
2023/03/20 02:57:16;;;;;;;17.83;7.07;;;;;;;6.26;100.00;101885.28;5088713;28;20502;-73
2023/03/20 03:00:08;;;;;;;21.02;9.15;;;;;;;6.25;100.00;101882.78;5090673;28;20089;-73
2023/03/20 03:02:37;;;;;;;;;;;;;;;6.27;100.00;101888.78;5093392;28;20016;-73
2023/03/20 03:05:10;;;;;;;28.35;12.05;;;;;;;6.21;100.00;101879.59;5093037;28;19912;-73
2023/03/20 03:07:40;;;;;;;25.92;9.30;;;;;;;6.17;100.00;101874.72;5093081;28;20050;-73
2023/03/20 03:10:12;;;;;;;23.27;11.52;;;;;;;6.13;100.00;101871.50;5073389;28;20036;-73
2023/03/20 03:12:42;;;;;;;19.65;9.52;;;;;;;6.06;100.00;101865.94;5073247;28;20430;-74
2023/03/20 03:15:36;;;;;;;21.90;10.40;;;;;;;6.14;100.00;101871.34;5073484;28;20056;-73
2023/03/20 03:18:08;;;;;;;23.33;9.23;;;;;;;6.12;100.00;101870.66;5091131;28;20044;-73
2023/03/20 03:20:35;;;;;;;;;;;;;;;6.13;100.00;101868.84;5092974;28;20024;-73
2023/03/20 03:23:01;;;;;;;23.30;8.13;;;;;;;6.08;100.00;101853.41;5092492;28;20405;-74
2023/03/20 03:25:31;;;;;;;18.77;9.20;;;;;;;6.07;100.00;101849.06;5086595;28;20036;-73
2023/03/20 03:28:10;;;;;;;21.83;9.07;;;;;;;6.06;100.00;101838.63;5072695;28;20049;-73
2023/03/20 03:30:38;;;;;;;24.10;9.88;;;;;;;6.08;100.00;101836.69;5072869;28;20036;-74
2023/03/20 03:33:17;;;;;;;21.90;9.23;;;;;;;6.08;100.00;101840.16;5073017;28;20842;-74
2023/03/20 03:35:43;;;;;;;21.98;8.27;;;;;;;6.09;100.00;101833.03;5072959;28;21024;-73
2023/03/20 03:38:17;;;;;;;25.67;9.85;;;;;;;6.06;100.00;101825.38;5091879;28;20123;-74
2023/03/20 03:40:51;;;;;;;24.75;9.02;;;;;;;6.06;100.00;101838.63;5090838;28;20063;-74
2023/03/20 03:43:23;;;;;;;24.50;8.88;;;;;;;6.04;100.00;101844.06;5092412;28;20031;-74
2023/03/20 03:45:50;;;;;;;21.23;10.68;;;;;;;5.97;100.00;101840.28;5090249;28;20027;-74
2023/03/20 03:48:21;;;;;;;24.75;9.43;;;;;;;5.96;100.00;101845.75;5072482;28;20064;-74
2023/03/20 03:50:52;;;;;;;21.88;8.40;;;;;;;5.95;100.00;101839.63;5091792;28;20128;-74
2023/03/20 03:53:41;;;;;;;24.90;9.27;;;;;;;5.91;100.00;101846.13;5072556;28;20031;-74
2023/03/20 03:56:11;;;;;;;21.45;8.65;;;;;;;5.92;100.00;101843.34;5072251;28;20430;-73
2023/03/20 03:58:41;;;;;;;20.65;8.20;;;;;;;5.89;100.00;101825.13;5072512;28;20135;-74
2023/03/20 04:01:12;;;;;;;22.02;9.45;;;;;;;5.94;100.00;101837.94;5072433;28;20314;-73
2023/03/20 04:03:41;;;;;;;21.55;9.02;;;;;;;5.96;100.00;101832.50;5072434;28;20032;-74
2023/03/20 04:06:11;;;;;;;21.58;7.53;;;;;;;5.92;100.00;101827.47;5072396;28;20999;-74
2023/03/20 04:08:39;;;;;;;19.45;7.50;;;;;;;5.92;100.00;101829.25;5072285;28;20033;-74
2023/03/20 04:11:05;;;;;;;20.45;9.05;;;;;;;5.95;100.00;101823.75;5071718;28;20024;-73
2023/03/20 04:13:30;;;;;;;20.25;8.02;;;;;;;5.92;100.00;101826.63;5072250;28;20036;-74
2023/03/20 04:15:56;;;;;;;18.25;8.02;;;;;;;5.92;100.00;101832.78;5072258;28;20653;-74
2023/03/20 04:18:21;;;;;;;17.75;7.25;;;;;;;5.90;100.00;101831.25;5072421;28;20093;-74
2023/03/20 04:20:47;;;;;;;19.92;8.15;;;;;;;5.88;100.00;101826.06;5071963;28;20034;-74
2023/03/20 04:23:13;;;;;;;25.70;8.90;;;;;;;5.86;100.00;101829.84;5072090;28;20031;-73
2023/03/20 04:25:39;;;;;;;19.20;8.07;;;;;;;5.85;100.00;101825.53;5071976;28;20037;-74
2023/03/20 04:28:05;;;;;;;22.42;7.47;;;;;;;5.77;100.00;101814.81;5071736;28;20057;-73
2023/03/20 04:30:31;;;;;;;20.25;7.50;;;;;;;5.78;100.00;101827.06;5071934;28;20055;-74
2023/03/20 04:32:56;;;;;;;18.67;6.65;;;;;;;5.74;100.00;101820.38;5071865;28;20067;-74
2023/03/20 04:35:22;;;;;;;20.48;8.98;;;;;;;5.72;100.00;101816.06;5071727;28;20024;-73
2023/03/20 04:37:47;;;;;;;26.45;8.68;;;;;;;5.72;100.00;101817.88;5071990;28;20537;-73
2023/03/20 04:40:13;;;;;;;21.17;9.35;;;;;;;5.66;100.00;101806.06;5071840;28;20131;-74
2023/03/20 04:42:38;;;;;;;19.25;7.32;;;;;;;5.69;100.00;101810.22;5071627;28;20084;-73
2023/03/20 04:45:05;;;;;;;26.30;8.32;;;;;;;5.65;100.00;101807.00;5071534;28;20505;-74
2023/03/20 04:47:31;;;;;;;19.77;8.02;;;;;;;5.62;100.00;101798.53;5071680;28;20129;-74
2023/03/20 04:49:56;;;;;;;21.95;8.32;;;;;;;5.68;100.00;101792.66;5070186;28;20111;-74
2023/03/20 04:52:21;;;;;;;19.20;7.07;;;;;;;5.68;100.00;101792.66;5071633;28;20061;-73
2023/03/20 04:54:47;;;;;;;19.05;7.97;;;;;;;5.68;100.00;101797.94;5071616;28;20029;-74
2023/03/20 04:57:12;;;;;;;18.95;6.95;;;;;;;5.68;100.00;101788.19;5071349;28;20536;-74
2023/03/20 04:59:37;;;;;;;20.20;8.25;;;;;;;5.72;100.00;101799.34;5071382;28;20043;-73
2023/03/20 05:02:03;;;;;;;21.70;8.20;;;;;;;5.72;100.00;101800.19;5090237;28;20028;-73
2023/03/20 05:04:28;;;;;;;22.33;9.50;;;;;;;5.75;100.00;101796.41;5090563;28;20062;-73
2023/03/20 05:06:54;;;;;;;19.48;7.80;;;;;;;5.76;100.00;101803.38;5090704;28;20028;-74
2023/03/20 05:09:19;;;;;;;22.77;8.85;;;;;;;5.75;100.00;101814.13;5090499;28;20051;-73
2023/03/20 05:11:44;;;;;;;21.02;9.10;;;;;;;5.76;100.00;101813.97;5090424;28;20136;-74
2023/03/20 05:14:10;;;;;;;19.00;8.07;;;;;;;5.75;100.00;101807.00;5089207;28;20028;-73
2023/03/20 05:16:36;;;;;;;21.90;8.82;;;;;;;5.79;100.00;101813.69;5090385;28;20058;-74
2023/03/20 05:19:02;;;;;;;23.90;9.90;;;;;;;5.82;100.00;101807.28;5090270;28;20028;-74
2023/03/20 05:21:27;;;;;;;21.27;7.90;;;;;;;5.84;100.00;101802.66;5090151;28;20493;-74
2023/03/20 05:23:53;;;;;;;20.10;9.45;;;;;;;5.83;100.00;101798.38;5089077;28;20085;-73
2023/03/20 05:26:18;;;;;;;18.23;7.43;;;;;;;5.84;100.00;101789.44;5090011;28;20059;-72
2023/03/20 05:28:44;;;;;;;22.58;8.10;;;;;;;5.84;100.00;101798.22;5090237;28;20048;-73
2023/03/20 05:31:09;;;;;;;19.25;8.45;;;;;;;5.82;100.00;101794.06;5070777;28;20037;-73
2023/03/20 05:33:35;;;;;;;19.70;8.07;;;;;;;5.85;100.00;101805.19;5070831;28;20052;-73
2023/03/20 05:36:00;;;;;;;21.50;8.38;;;;;;;5.88;100.00;101794.31;5070735;28;20036;-74
2023/03/20 05:38:26;;;;;;;23.88;7.95;;;;;;;5.89;100.00;101792.50;5070398;28;20040;-73
2023/03/20 05:40:58;;;;;;;17.70;8.07;;;;;;;5.91;100.00;101793.19;5070191;28;20024;-74
2023/03/20 05:43:24;;;;;;;18.92;7.93;;;;;;;5.93;100.00;101784.16;5089695;28;20050;-74
2023/03/20 05:45:50;;;;;;;15.77;6.45;;;;;;;5.93;100.00;101785.94;5088478;28;20040;-73
2023/03/20 05:48:15;;;;;;;22.30;7.88;;;;;;;5.90;100.00;101791.53;5089668;28;20050;-74
2023/03/20 05:50:41;;;;;;;20.60;6.60;;;;;;;5.88;100.00;101785.53;5089716;28;20028;-73
2023/03/20 05:53:06;;;;;;;18.88;7.05;;;;;;;5.93;100.00;101797.41;5089640;28;20364;-73
2023/03/20 05:55:32;;;;;;;21.52;8.20;;;;;;;5.99;100.00;101811.03;5089845;28;20053;-73
2023/03/20 05:57:57;;;;;;;17.95;8.50;;;;;;;6.00;100.00;101815.34;5089599;28;20100;-73
2023/03/20 06:00:23;;;;;;;14.23;6.28;;;;;;;6.02;100.00;101816.03;5089399;28;20065;-66
2023/03/20 06:02:48;;;;;;;17.98;6.93;;;;;;;6.04;100.00;101819.41;5073514;28;20075;-72
2023/03/20 06:05:14;;;;;;;18.65;7.07;;;;;;;6.05;100.00;101824.56;5069859;28;20135;-72
2023/03/20 06:07:39;;;;;;;18.45;6.43;;;;;;;6.07;100.00;101833.16;5070034;28;20082;-73
2023/03/20 06:10:05;;;;;;;18.60;6.82;;;;;;;6.09;100.00;101827.75;5071023;28;20126;-72
2023/03/20 06:12:30;;;;;;;15.65;5.75;;;;;;;6.13;100.00;101834.41;5072365;28;20127;-70
2023/03/20 06:14:56;;;;;;;17.17;6.63;;;;;;;6.11;100.00;101831.91;5072558;28;20021;-71
2023/03/20 06:17:21;;;;;;;15.95;7.00;;;;;;;6.14;100.00;101836.94;5072969;28;20475;-70
2023/03/20 06:19:46;;;;;;;15.95;6.93;;;;;;;6.16;100.00;101839.44;5072618;28;20047;-72
2023/03/20 06:22:12;;;;;;;15.57;5.78;;;;;;;6.19;100.00;101833.03;5071760;28;20391;-71
2023/03/20 06:24:37;;;;;;;13.02;5.40;;;;;;;6.11;100.00;101823.97;5072935;28;20487;-71
2023/03/20 06:27:02;;;;;;;13.48;6.22;;;;;;;6.25;100.00;101837.75;5072572;28;20040;-73
2023/03/20 06:29:28;;;;;;;17.15;6.75;;;;;;;6.33;100.00;101843.97;5072517;28;20044;-67
2023/03/20 06:31:53;;;;;;;17.80;6.43;;;;;;;6.38;100.00;101840.91;5072455;28;20487;-72
2023/03/20 06:34:19;;;;;;;17.58;6.80;;;;;;;6.43;100.00;101840.47;5071988;28;20038;-71
2023/03/20 06:36:44;;;;;;;14.35;5.43;;;;;;;6.48;100.00;101852.31;5072199;28;20024;-71
2023/03/20 06:39:10;;;;;;;16.10;6.13;;;;;;;6.53;100.00;101847.41;5072003;28;20066;-71
2023/03/20 06:41:35;;;;;;;20.55;6.75;;;;;;;6.58;100.00;101854.94;5072309;28;20082;-71
2023/03/20 06:44:02;;;;;;;17.05;6.10;;;;;;;6.63;100.00;101843.88;5072506;28;20028;-72
2023/03/20 06:46:28;;;;;;;16.42;6.30;;;;;;;6.66;100.00;101848.91;5072467;28;20033;-72
2023/03/20 06:48:53;;;;;;;16.92;6.55;;;;;;;6.72;100.00;101861.56;5071981;28;20121;-72
2023/03/20 06:51:18;;;;;;;15.93;5.95;;;;;;;6.75;100.00;101867.41;5072467;28;20124;-72
2023/03/20 06:53:44;;;;;;;15.35;5.65;;;;;;;6.82;100.00;101864.19;5072816;28;20032;-72
2023/03/20 06:56:10;;;;;;;13.70;6.00;;;;;;;6.86;100.00;101869.00;5072392;28;20028;-72
2023/03/20 06:58:36;;;;;;;17.13;5.88;;;;;;;6.91;100.00;101874.72;5072385;28;20406;-73
2023/03/20 07:01:02;;;;;;;17.65;5.75;;;;;;;6.96;100.00;101868.97;5071191;28;20035;-72
2023/03/20 07:03:27;;;;;;;15.60;5.68;;;;;;;6.98;100.00;101873.16;5072360;28;20033;-72
2023/03/20 07:05:52;;;;;;;17.95;6.20;;;;;;;7.00;100.00;101880.97;5071960;28;20479;-71
2023/03/20 07:08:18;;;;;;;16.80;6.93;;;;;;;6.98;100.00;101873.16;5072261;28;20070;-71
2023/03/20 07:10:43;;;;;;;16.20;6.32;;;;;;;6.97;100.00;101879.44;5070801;28;20048;-73
2023/03/20 07:13:09;;;;;;;14.80;6.68;;;;;;;7.00;100.00;101883.63;5071585;28;20063;-67
2023/03/20 07:15:35;;;;;;;15.10;5.63;;;;;;;7.02;100.00;101877.19;5072434;28;20031;-67
2023/03/20 07:18:00;;;;;;;15.98;6.10;;;;;;;7.05;100.00;101889.31;5071951;28;20027;-67
2023/03/20 07:20:26;;;;;;;19.90;6.82;;;;;;;7.08;100.00;101888.19;5071975;28;20032;-67
2023/03/20 07:22:51;;;;;;;22.45;8.82;;;;;;;7.10;100.00;101878.25;5072309;28;20037;-67
2023/03/20 07:25:17;;;;;;;16.20;6.38;;;;;;;7.11;100.00;101882.59;5072816;28;20484;-67
2023/03/20 07:27:49;;;;;;;17.05;5.60;;;;;;;7.11;100.00;101887.88;5071642;28;20048;-66
2023/03/20 07:30:14;;;;;;;14.57;6.07;;;;;;;7.10;100.00;101891.50;5071746;28;20036;-66
2023/03/20 07:32:40;;;;;;;17.38;5.75;;;;;;;7.09;100.00;101895.16;5071909;28;21037;-66
2023/03/20 07:35:06;;;;;;;17.40;5.50;;;;;;;7.11;100.00;101898.50;5069550;28;20028;-66
2023/03/20 07:37:31;;;;;;;14.35;6.22;;;;;;;7.11;100.00;101879.94;5068992;28;20028;-66
2023/03/20 07:39:57;;;;;;;14.45;5.72;;;;;;;7.19;100.00;101894.13;5068590;28;20028;-66
2023/03/20 07:42:22;;;;;;;17.42;7.97;;;;;;;7.28;100.00;101891.53;5083734;28;20028;-66
2023/03/20 07:44:47;;;;;;;15.23;6.75;;;;;;;7.37;100.00;101896.81;5088369;28;20397;-66
2023/03/20 07:47:13;;;;;;;21.25;6.03;;;;;;;7.44;100.00;101897.03;5091241;28;20036;-66
2023/03/20 07:49:38;;;;;;;17.73;6.75;;;;;;;7.55;100.00;101894.16;5092173;28;20124;-66
2023/03/20 07:52:03;;;;;;;16.35;5.70;;;;;;;7.63;100.00;101893.41;5091969;28;20028;-66
2023/03/20 07:54:29;;;;;;;18.88;8.25;;;;;;;7.71;100.00;101903.28;5091925;28;20543;-66
2023/03/20 07:56:55;;;;;;;19.70;7.75;;;;;;;7.77;100.00;101890.22;5092088;28;20092;-66
2023/03/20 07:59:20;;;;;;;15.82;6.18;;;;;;;7.78;100.00;101891.91;5091951;28;20024;-66
2023/03/20 08:01:45;;;;;;;15.98;6.35;;;;;;;7.82;100.00;101890.59;5091763;28;20150;-66
2023/03/20 08:04:11;;;;;;;16.10;6.85;;;;;;;7.86;100.00;101894.63;5091910;28;20031;-66
2023/03/20 08:06:38;;;;;;;17.02;5.97;;;;;;;7.84;100.00;101896.59;5091716;28;20039;-66
2023/03/20 08:09:04;;;;;;;17.23;7.22;;;;;;;7.84;100.00;101893.94;5091570;28;20032;-65
2023/03/20 08:11:29;;;;;;;17.23;6.00;;;;;;;7.81;100.00;101898.72;5091618;28;20042;-67
2023/03/20 08:13:55;;;;;;;14.13;5.97;;;;;;;7.80;100.00;101889.91;5089932;28;20028;-67
2023/03/20 08:16:20;;;;;;;11.75;5.53;;;;;;;7.79;100.00;101885.59;5072441;28;20082;-68
2023/03/20 08:18:45;;;;;;;18.38;8.40;;;;;;;7.78;100.00;101897.22;5071878;28;20028;-68
2023/03/20 08:21:11;;;;;;;16.42;5.90;;;;;;;7.75;100.00;101900.16;5071504;28;20029;-67
2023/03/20 08:23:36;;;;;;;15.52;5.82;;;;;;;7.67;100.00;101895.59;5071578;28;20079;-68
2023/03/20 08:26:02;;;;;;;16.15;5.47;;;;;;;7.64;100.00;101897.72;5071877;28;20119;-67
2023/03/20 08:28:27;;;;;;;13.85;6.38;;;;;;;7.61;100.00;101885.59;5071745;28;20542;-68
2023/03/20 08:30:52;;;;;;;11.65;5.32;;;;;;;7.66;100.00;101901.06;5071973;28;20067;-67
2023/03/20 08:33:18;;;;;;;13.60;5.20;;;;;;;7.60;100.00;101894.56;5072000;28;20075;-67
2023/03/20 08:35:54;;;;;;;14.45;5.72;;;;;;;7.62;100.00;101889.94;5071245;28;20078;-68
2023/03/20 08:38:20;;;;;;;14.43;5.15;;;;;;;7.65;100.00;101900.25;5070452;28;20468;-68
2023/03/20 08:40:45;;;;;;;16.30;4.78;;;;;;;7.72;100.00;101889.00;5090623;28;20085;-68
2023/03/20 08:43:10;;;;;;;13.80;5.97;;;;;;;7.73;100.00;101888.88;5090746;28;20591;-68
2023/03/20 08:45:36;;;;;;;19.27;5.78;;;;;;;7.78;100.00;101896.34;5090791;28;20114;-68
2023/03/20 08:48:01;;;;;;;9.40;4.57;;;;;;;7.78;100.00;101896.34;5090865;28;20475;-67
2023/03/20 08:50:27;;;;;;;10.57;4.97;;;;;;;7.81;100.00;101893.41;5090804;28;20036;-68
2023/03/20 08:52:52;;;;;;;16.95;6.07;;;;;;;7.85;100.00;101895.59;5090727;28;20528;-68
2023/03/20 08:55:18;;;;;;;11.93;4.65;;;;;;;7.90;100.00;101901.28;5091033;28;20044;-68
2023/03/20 08:57:45;;;;;;;16.42;5.35;;;;;;;7.99;100.00;101896.88;5090658;28;20482;-67
2023/03/20 09:00:13;;;;;;;13.77;5.07;;;;;;;8.05;100.00;101882.97;5076008;28;20947;-67
2023/03/20 09:02:38;;;;;;;11.57;4.25;;;;;;;8.12;100.00;101880.53;5070068;28;20526;-66
2023/03/20 09:05:04;;;;;;;14.88;5.00;;;;;;;8.19;99.81;101883.41;5088702;28;20066;-67
2023/03/20 09:07:30;;;;;;;16.50;4.97;;;;;;;8.23;100.00;101879.47;5089961;28;20376;-67
2023/03/20 09:09:55;;;;;;;14.75;4.82;;;;;;;8.30;99.82;101883.97;5090501;28;20039;-67
2023/03/20 09:12:21;;;;;;;22.92;6.20;;;;;;;8.25;98.62;101878.31;5090378;28;20074;-67
2023/03/20 09:14:46;;;;;;;18.08;4.75;;;;;;;8.23;99.09;101884.78;5090457;28;20032;-67
2023/03/20 09:17:12;;;;;;;12.95;6.00;;;;;;;8.23;99.31;101884.78;5090372;28;20031;-67
2023/03/20 09:19:38;;;;;;;10.02;4.15;;;;;;;8.24;99.53;101897.06;5090304;28;20028;-67
2023/03/20 09:22:05;;;;;;;16.20;5.32;;;;;;;8.21;98.86;101882.25;5090181;28;20036;-67
2023/03/20 09:24:31;;;;;;;22.95;5.65;;;;;;;8.21;99.33;101890.22;5090173;28;20035;-67
2023/03/20 09:26:57;;;;;;;13.80;5.50;;;;;;;8.22;99.42;101891.06;5090005;28;20039;-67
2023/03/20 09:29:22;;;;;;;14.60;6.28;;;;;;;8.15;99.76;101884.69;5090304;28;20028;-67
2023/03/20 09:31:48;;;;;;;14.05;4.43;;;;;;;8.13;99.56;101892.84;5070863;28;20665;-67
2023/03/20 09:34:13;;;;;;;14.05;5.68;;;;;;;8.13;99.26;101892.84;5070659;28;20460;-67
2023/03/20 09:36:38;;;;;;;11.27;4.28;;;;;;;8.21;99.50;101897.38;5070600;28;20526;-67
2023/03/20 09:39:04;;;;;;;16.20;5.18;;;;;;;8.28;98.95;101893.94;5069197;28;20043;-67
2023/03/20 09:41:35;;;;;;;16.17;5.05;;;;;;;8.33;99.25;101890.78;5070417;28;20033;-67
2023/03/20 09:44:19;;;;;;;12.20;6.25;;;;;;;8.42;100.00;101902.38;5069206;28;20391;-67
2023/03/20 09:47:12;;;;;;;12.00;4.35;;;;;;;8.48;100.00;101910.53;5089881;28;20020;-67
2023/03/20 09:49:40;;;;;;;13.48;5.60;;;;;;;8.47;100.00;101906.22;5090101;28;20024;-67
2023/03/20 09:52:29;;;;;;;12.85;5.93;;;;;;;8.43;100.00;101896.88;5080733;28;20028;-67
2023/03/20 09:55:18;;;;;;;15.85;6.20;;;;;;;8.70;100.00;101913.69;5068851;28;20422;-66
2023/03/20 09:57:50;;;;;;;9.30;4.05;;;;;;;8.71;100.00;101905.53;5071333;28;20020;-68
2023/03/20 10:00:21;;;;;;;14.02;4.95;;;;;;;8.71;100.00;101907.34;5072890;28;20036;-67
2023/03/20 10:02:59;;;;;;;15.35;4.25;;;;;;;8.69;100.00;101906.66;5072052;28;20020;-68
2023/03/20 10:05:31;;;;;;;9.07;3.80;;;;;;;8.65;100.00;101902.69;5070344;28;20598;-68
2023/03/20 10:08:00;;;;;;;13.63;4.35;;;;;;;8.56;100.00;101910.59;5089258;28;20119;-68
2023/03/20 10:10:47;;;;;;;9.63;4.18;;;;;;;8.51;100.00;101906.72;5088671;28;20032;-68
2023/03/20 10:13:43;;;;;;;11.32;4.07;;;;;;;8.50;100.00;101900.59;5089231;28;20069;-68
2023/03/20 10:16:31;;;;;;;11.25;4.10;;;;;;;8.57;100.00;101908.78;5087735;28;20185;-68
2023/03/20 10:19:09;;;;;;;8.68;3.63;;;;;;;8.58;100.00;101899.81;5089034;28;20464;-68
2023/03/20 10:21:46;;;;;;;10.93;4.28;;;;;;;8.58;100.00;101894.47;5088785;28;20387;-68
2023/03/20 10:24:20;;;;;;;7.47;3.67;;;;;;;8.57;100.00;101892.81;5088952;28;20052;-68
2023/03/20 10:26:51;;;;;;;9.80;4.50;;;;;;;8.60;100.00;101889.03;5089160;28;20066;-68
2023/03/20 10:29:38;;;;;;;11.07;3.80;;;;;;;8.71;100.00;101888.72;5088983;28;20048;-68
2023/03/20 10:32:28;;;;;;;11.10;3.22;;;;;;;8.79;100.00;101886.09;5089134;28;20032;-68
2023/03/20 10:35:07;;;;;;;10.75;4.03;;;;;;;8.86;100.00;101884.50;5089369;28;20027;-68
2023/03/20 10:37:57;;;;;;;14.50;4.35;;;;;;;8.93;100.00;101884.66;5069895;28;20028;-67
2023/03/20 10:40:30;;;;;;;13.18;3.75;;;;;;;8.88;100.00;101881.66;5088628;28;20427;-68
2023/03/20 10:43:02;;;;;;;9.65;3.78;;;;;;;8.91;100.00;101884.03;5088882;28;20058;-68
2023/03/20 10:45:29;;;;;;;7.57;3.42;;;;;;;8.95;100.00;101880.84;5089254;28;20039;-68
2023/03/20 10:47:57;;;;;;;9.60;4.85;;;;;;;8.93;100.00;101888.19;5089050;28;20031;-68
2023/03/20 10:50:34;;;;;;;11.50;4.07;;;;;;;8.72;100.00;101869.13;5088822;28;20114;-68
2023/03/20 10:53:03;;;;;;;11.05;3.53;;;;;;;8.66;100.00;101872.41;5088893;28;20035;-68
2023/03/20 10:55:34;;;;;;;10.57;3.63;;;;;;;8.59;100.00;101874.88;5088778;28;20024;-68
2023/03/20 10:58:15;;;;;;;8.15;3.47;;;;;;;8.57;100.00;101887.50;5069821;28;20692;-68
2023/03/20 11:00:41;;;;;;;8.75;3.65;;;;;;;8.47;100.00;101882.28;5088863;28;20024;-68
2023/03/20 11:03:15;;;;;;;18.05;5.38;;;;;;;8.45;100.00;101884.28;5069448;28;20388;-68
2023/03/20 11:05:41;;;;;;;14.43;4.07;;;;;;;8.35;100.00;101881.69;5088576;28;20382;-68
2023/03/20 11:08:10;;;;;;;9.13;4.22;;;;;;;8.37;100.00;101878.88;5088923;28;20436;-68
2023/03/20 11:10:38;;;;;;;16.23;5.07;;;;;;;8.51;100.00;101888.97;5088995;28;20333;-68
2023/03/20 11:13:15;;;;;;;15.73;5.13;;;;;;;8.64;100.00;101872.56;5088931;28;20031;-68
2023/03/20 11:15:41;;;;;;;13.70;4.63;;;;;;;8.72;100.00;101858.47;5088731;28;20128;-68
2023/03/20 11:18:12;;;;;;;26.45;5.55;;;;;;;8.90;100.00;101869.84;5087277;28;20036;-67
2023/03/20 11:20:56;;;;;;;11.80;5.20;;;;;;;9.01;100.00;101868.72;5088640;28;20100;-67
2023/03/20 11:23:29;;;;;;;12.25;5.47;;;;;;;9.05;100.00;101867.44;5092332;28;20046;-68
2023/03/20 11:26:06;;;;;;;18.58;5.75;;;;;;;9.23;100.00;101863.81;5092614;28;20029;-67
2023/03/20 11:28:39;;;;;;;12.98;4.40;;;;;;;9.32;100.00;101849.53;5092336;28;20109;-67
2023/03/20 11:31:06;;;;;;;10.35;4.53;;;;;;;9.36;100.00;101845.53;5092368;28;20013;-67